Time;durP1;ratioP1;P1;durP2;ratioP2;P2;SDS_P1;SDS_P2;PMS_P1;PMS_P2;Temp;Humidity;BMP_temperature;BMP_pressure;BME280_temperature;BME280_humidity;BME280_pressure;Samples;Min_cycle;Max_cycle;Signal;HPM_P1;HPM_P2
2023/04/22 00:00:20;;;;;;;;;;;12.00;78.60;;;;;;5050625;28;20007;-70
2023/04/22 00:02:45;;;;;;;;;;;12.00;78.70;;;;;;5050584;28;20358;-70
2023/04/22 00:05:12;;;;;;;;;;;12.00;78.70;;;;;;5032850;28;19913;-70
2023/04/22 00:07:41;;;;;;;;;;;12.00;78.70;;;;;;5050462;28;19917;-70
2023/04/22 00:10:08;;;;;;;;;;;12.00;78.70;;;;;;5032802;28;19913;-70
2023/04/22 00:12:33;;;;;;;;;;;11.90;78.70;;;;;;5050421;28;19986;-70
2023/04/22 00:14:59;;;;;;;;;;;11.90;78.70;;;;;;5050298;28;19917;-70
2023/04/22 00:17:25;;;;;;;;;;;11.80;78.80;;;;;;5050286;28;20004;-69
2023/04/22 00:19:50;;;;;;;;;;;11.80;78.80;;;;;;5050154;28;19941;-70
2023/04/22 00:22:16;;;;;;;;;;;11.80;78.80;;;;;;5050317;28;20280;-70
2023/04/22 00:24:41;;;;;;;;;;;11.80;78.90;;;;;;5050111;28;19992;-70
2023/04/22 00:27:07;;;;;;;;;;;11.80;78.90;;;;;;5050061;28;19930;-70
2023/04/22 00:29:32;;;;;;;;;;;11.80;78.90;;;;;;5050000;28;19913;-70
2023/04/22 00:31:58;;;;;;;;;;;11.80;78.80;;;;;;5049977;28;19913;-70
2023/04/22 00:34:24;;;;;;;;;;;11.90;78.90;;;;;;5049953;28;20388;-70
2023/04/22 00:36:50;;;;;;;;;;;11.90;78.80;;;;;;5050033;28;19913;-70
2023/04/22 00:39:16;;;;;;;;;;;11.90;78.70;;;;;;5049951;28;19913;-70
2023/04/22 00:41:42;;;;;;;;;;;11.90;78.80;;;;;;5049983;28;19909;-70
2023/04/22 00:44:08;;;;;;;;;;;11.90;78.80;;;;;;5048974;28;19909;-70
2023/04/22 00:46:34;;;;;;;;;;;11.90;78.80;;;;;;5049717;28;20275;-70
2023/04/22 00:49:00;;;;;;;;;;;11.90;78.90;;;;;;5031935;28;19917;-70
2023/04/22 00:51:26;;;;;;;;;;;11.80;78.80;;;;;;5049785;28;19916;-70
2023/04/22 00:53:52;;;;;;;;;;;11.80;78.80;;;;;;5050048;28;20018;-70
2023/04/22 00:56:18;;;;;;;;;;;11.80;78.80;;;;;;5049692;28;19917;-70
2023/04/22 00:58:44;;;;;;;;;;;11.70;78.80;;;;;;5049586;28;19975;-70
2023/04/22 01:01:11;;;;;;;;;;;11.70;78.80;;;;;;5049692;28;20265;-70
2023/04/22 01:03:38;;;;;;;;;;;11.70;78.90;;;;;;5031999;28;19949;-70
2023/04/22 01:06:03;;;;;;;;;;;11.50;78.90;;;;;;5049561;28;19909;-70
2023/04/22 01:08:29;;;;;;;;;;;11.50;79.10;;;;;;5049347;28;19909;-70
2023/04/22 01:10:56;;;;;;;;;;;11.60;79.00;;;;;;5031421;28;19913;-70
2023/04/22 01:13:21;;;;;;;;;;;11.60;78.90;;;;;;5049405;28;19993;-70
2023/04/22 01:15:47;;;;;;;;;;;11.60;79.00;;;;;;5049335;28;20015;-70
2023/04/22 01:18:13;;;;;;;;;;;11.60;79.00;;;;;;5049133;28;20377;-70
2023/04/22 01:20:39;;;;;;;;;;;11.60;78.90;;;;;;5049132;28;19980;-70
2023/04/22 01:23:08;;;;;;;;;;;11.60;78.80;;;;;;5049162;28;19962;-70
2023/04/22 01:25:34;;;;;;;;;;;11.60;78.80;;;;;;5048969;28;19912;-70
2023/04/22 01:28:00;;;;;;;;;;;11.70;78.80;;;;;;5048988;28;19913;-70
2023/04/22 01:30:26;;;;;;;;;;;11.70;78.90;;;;;;5048966;28;19920;-70
2023/04/22 01:32:51;;;;;;;;;;;11.70;79.00;;;;;;5048733;28;19933;-70
2023/04/22 01:35:17;;;;;;;;;;;11.70;78.90;;;;;;5048751;28;19916;-70
2023/04/22 01:37:43;;;;;;;;;;;11.70;78.80;;;;;;5048722;28;20002;-70
2023/04/22 01:40:09;;;;;;;;;;;11.70;78.80;;;;;;5031199;28;19909;-70
2023/04/22 01:42:35;;;;;;;;;;;11.70;78.80;;;;;;5030746;28;19913;-70
2023/04/22 01:45:00;;;;;;;;;;;11.70;78.80;;;;;;5048751;28;20007;-70
2023/04/22 01:47:26;;;;;;;;;;;11.70;78.70;;;;;;5048508;28;19916;-70
2023/04/22 01:49:52;;;;;;;;;;;11.70;78.80;;;;;;5048497;28;20216;-71
2023/04/22 01:52:17;;;;;;;;;;;11.70;78.90;;;;;;5048342;28;19917;-71
2023/04/22 01:54:43;;;;;;;;;;;11.70;78.90;;;;;;5048196;28;19916;-71
2023/04/22 01:57:12;;;;;;;;;;;11.70;78.90;;;;;;5048368;28;19999;-71
2023/04/22 01:59:38;;;;;;;;;;;11.70;78.90;;;;;;5048352;28;19917;-71
2023/04/22 02:02:03;;;;;;;;;;;11.70;79.00;;;;;;5048201;28;20015;-71
2023/04/22 02:04:29;;;;;;;;;;;11.70;79.00;;;;;;5048285;28;19912;-71
2023/04/22 02:06:55;;;;;;;;;;;11.80;79.10;;;;;;5048204;28;19912;-72
2023/04/22 02:09:20;;;;;;;;;;;11.80;79.00;;;;;;5047970;28;19913;-72
2023/04/22 02:11:46;;;;;;;;;;;11.80;78.90;;;;;;5048133;28;19916;-71
2023/04/22 02:14:11;;;;;;;;;;;11.80;78.90;;;;;;5048301;28;19925;-71
2023/04/22 02:16:37;;;;;;;;;;;11.80;78.90;;;;;;5048004;28;20289;-71
2023/04/22 02:19:02;;;;;;;;;;;11.80;79.00;;;;;;5047909;28;20042;-71
2023/04/22 02:21:29;;;;;;;;;;;11.80;79.10;;;;;;5047939;28;19960;-71
2023/04/22 02:23:54;;;;;;;;;;;11.80;78.90;;;;;;5030201;28;19932;-71
2023/04/22 02:26:20;;;;;;;;;;;11.90;79.00;;;;;;5047930;28;19936;-72
2023/04/22 02:28:45;;;;;;;;;;;11.90;79.00;;;;;;5047735;28;19927;-71
2023/04/22 02:31:11;;;;;;;;;;;11.90;79.00;;;;;;5047792;28;19916;-71
2023/04/22 02:33:37;;;;;;;;;;;11.90;78.90;;;;;;5047652;28;19932;-71
2023/04/22 02:36:03;;;;;;;;;;;11.80;78.90;;;;;;5030178;28;19919;-71
2023/04/22 02:38:29;;;;;;;;;;;11.80;78.90;;;;;;5047654;28;19912;-71
2023/04/22 02:40:54;;;;;;;;;;;11.70;79.00;;;;;;5047850;28;20284;-71
2023/04/22 02:43:20;;;;;;;;;;;11.70;79.00;;;;;;5047853;28;19962;-71
2023/04/22 02:45:45;;;;;;;;;;;11.80;79.10;;;;;;5047724;28;19924;-71
2023/04/22 02:48:11;;;;;;;;;;;11.80;79.00;;;;;;5047708;28;20361;-71
2023/04/22 02:50:36;;;;;;;;;;;11.80;78.90;;;;;;5047655;28;20018;-71
2023/04/22 02:53:02;;;;;;;;;;;11.80;78.90;;;;;;5047696;28;19920;-71
2023/04/22 02:55:27;;;;;;;;;;;11.90;79.00;;;;;;5047594;28;19956;-71
2023/04/22 02:57:53;;;;;;;;;;;11.90;78.90;;;;;;5047467;28;20391;-71
2023/04/22 03:00:19;;;;;;;;;;;12.00;78.90;;;;;;5047601;28;19913;-71
2023/04/22 03:02:44;;;;;;;;;;;12.00;78.80;;;;;;5047649;28;19928;-71
2023/04/22 03:05:10;;;;;;;;;;;12.00;79.30;;;;;;5047487;28;20011;-71
2023/04/22 03:07:35;;;;;;;;;;;12.00;78.70;;;;;;5050989;28;19909;-72
2023/04/22 03:10:01;;;;;;;;;;;12.00;78.70;;;;;;5051572;28;20389;-71
2023/04/22 03:12:27;;;;;;;;;;;12.00;78.70;;;;;;5051438;28;19919;-71
2023/04/22 03:14:52;;;;;;;;;;;12.10;78.80;;;;;;5051507;28;19912;-71
2023/04/22 03:17:18;;;;;;;;;;;12.10;78.70;;;;;;5051436;28;19917;-71
2023/04/22 03:19:44;;;;;;;;;;;12.10;78.70;;;;;;5051275;28;20434;-71
2023/04/22 03:22:09;;;;;;;;;;;12.00;78.50;;;;;;5033448;28;20002;-71
2023/04/22 03:24:35;;;;;;;;;;;11.90;78.70;;;;;;5051320;28;20372;-71
2023/04/22 03:27:01;;;;;;;;;;;11.90;78.80;;;;;;5051366;28;19968;-71
2023/04/22 03:29:26;;;;;;;;;;;11.90;78.90;;;;;;5051064;28;19917;-72
2023/04/22 03:31:52;;;;;;;;;;;11.90;78.90;;;;;;5051042;28;20015;-71
2023/04/22 03:34:17;;;;;;;;;;;11.90;78.80;;;;;;5050906;28;19921;-71
2023/04/22 03:36:43;;;;;;;;;;;12.00;78.90;;;;;;5051063;28;19932;-71
2023/04/22 03:39:08;;;;;;;;;;;12.00;78.80;;;;;;5050890;28;19913;-71
2023/04/22 03:41:34;;;;;;;;;;;12.00;78.80;;;;;;5050964;28;19917;-71
2023/04/22 03:43:59;;;;;;;;;;;12.10;78.80;;;;;;5050900;28;20278;-71
2023/04/22 03:46:25;;;;;;;;;;;12.10;78.80;;;;;;5050861;28;20370;-71
2023/04/22 03:48:51;;;;;;;;;;;12.10;78.80;;;;;;5032726;28;20475;-72
2023/04/22 03:51:16;;;;;;;;;;;12.10;78.70;;;;;;5050663;28;19920;-71
2023/04/22 03:53:42;;;;;;;;;;;12.00;78.70;;;;;;5050635;28;19920;-71
2023/04/22 03:56:07;;;;;;;;;;;12.00;78.80;;;;;;5032952;28;20000;-71
2023/04/22 03:58:33;;;;;;;;;;;11.90;79.00;;;;;;5050652;28;19913;-71
2023/04/22 04:00:58;;;;;;;;;;;11.90;79.00;;;;;;5050671;28;20327;-71
2023/04/22 04:03:25;;;;;;;;;;;11.80;78.90;;;;;;5050326;28;19909;-71
2023/04/22 04:05:50;;;;;;;;;;;11.70;79.00;;;;;;5050357;28;20062;-71
2023/04/22 04:08:16;;;;;;;;;;;11.60;79.10;;;;;;5032532;28;19996;-71
2023/04/22 04:10:41;;;;;;;;;;;11.50;79.10;;;;;;5050326;28;19921;-71
2023/04/22 04:13:07;;;;;;;;;;;11.50;79.20;;;;;;5050312;28;19913;-71
2023/04/22 04:15:35;;;;;;;;;;;11.50;79.30;;;;;;5049996;28;20373;-71
2023/04/22 04:18:01;;;;;;;;;;;11.50;79.30;;;;;;5048716;28;19931;-71
2023/04/22 04:20:27;;;;;;;;;;;11.50;79.30;;;;;;5050152;28;20499;-71
2023/04/22 04:22:53;;;;;;;;;;;11.50;79.30;;;;;;5050144;28;19964;-72
2023/04/22 04:25:20;;;;;;;;;;;11.50;79.30;;;;;;5050085;28;19921;-71
2023/04/22 04:27:46;;;;;;;;;;;11.60;79.20;;;;;;5032344;28;19919;-71
2023/04/22 04:30:12;;;;;;;;;;;11.60;79.10;;;;;;5049950;28;19974;-71
2023/04/22 04:32:37;;;;;;;;;;;11.60;79.20;;;;;;5049714;28;19920;-71
2023/04/22 04:35:03;;;;;;;;;;;11.60;79.10;;;;;;5049693;28;19920;-72
2023/04/22 04:37:29;;;;;;;;;;;11.50;79.00;;;;;;5049883;28;19920;-71
2023/04/22 04:39:58;;;;;;;;;;;11.60;79.10;;;;;;5049681;28;19963;-71
2023/04/22 04:42:23;;;;;;;;;;;11.60;79.00;;;;;;5049683;28;19913;-71
2023/04/22 04:44:50;;;;;;;;;;;11.60;79.00;;;;;;5049568;28;20008;-72
2023/04/22 04:47:15;;;;;;;;;;;11.60;78.90;;;;;;5049532;28;19913;-71
2023/04/22 04:49:42;;;;;;;;;;;11.60;78.80;;;;;;5031461;28;20043;-71
2023/04/22 04:52:10;;;;;;;;;;;11.50;78.90;;;;;;5049518;28;20100;-71
2023/04/22 04:54:36;;;;;;;;;;;11.50;78.90;;;;;;5049407;28;20385;-71
2023/04/22 04:57:02;;;;;;;;;;;11.50;78.90;;;;;;5049444;28;19919;-71
2023/04/22 04:59:27;;;;;;;;;;;11.50;78.90;;;;;;5049715;28;19920;-71
2023/04/22 05:01:53;;;;;;;;;;;11.50;78.90;;;;;;5049281;28;19932;-71
2023/04/22 05:04:19;;;;;;;;;;;11.40;78.90;;;;;;5049245;28;19913;-71
2023/04/22 05:06:44;;;;;;;;;;;11.40;78.90;;;;;;5031339;28;20068;-71
2023/04/22 05:09:10;;;;;;;;;;;11.40;78.90;;;;;;5049277;28;19924;-71
2023/04/22 05:11:36;;;;;;;;;;;11.40;78.80;;;;;;5049269;28;19913;-71
2023/04/22 05:14:01;;;;;;;;;;;11.30;78.80;;;;;;5049185;28;20308;-71
2023/04/22 05:16:27;;;;;;;;;;;11.30;78.90;;;;;;5049241;28;20404;-71
2023/04/22 05:18:52;;;;;;;;;;;11.30;78.90;;;;;;5049014;28;19917;-71
2023/04/22 05:21:19;;;;;;;;;;;11.30;78.90;;;;;;5049200;28;19917;-72
2023/04/22 05:23:44;;;;;;;;;;;11.40;79.00;;;;;;5049107;28;19978;-72
2023/04/22 05:26:10;;;;;;;;;;;11.40;79.00;;;;;;5049065;28;20303;-71
2023/04/22 05:28:35;;;;;;;;;;;11.40;78.90;;;;;;5048223;28;20417;-71
2023/04/22 05:31:01;;;;;;;;;;;11.40;78.80;;;;;;5048773;28;20420;-71
2023/04/22 05:33:27;;;;;;;;;;;11.40;78.90;;;;;;5048610;28;20058;-72
2023/04/22 05:35:52;;;;;;;;;;;11.40;79.00;;;;;;5048685;28;19956;-71
2023/04/22 05:38:20;;;;;;;;;;;11.40;79.00;;;;;;5047839;28;20298;-71
2023/04/22 05:40:45;;;;;;;;;;;11.50;79.00;;;;;;5048460;28;19917;-72
2023/04/22 05:43:11;;;;;;;;;;;11.50;79.00;;;;;;5048447;28;20482;-71
2023/04/22 05:45:36;;;;;;;;;;;11.50;78.90;;;;;;5048381;28;20277;-71
2023/04/22 05:48:02;;;;;;;;;;;11.50;79.00;;;;;;5048220;28;20055;-71
2023/04/22 05:50:28;;;;;;;;;;;11.60;79.10;;;;;;5048276;28;19921;-72
2023/04/22 05:52:53;;;;;;;;;;;11.60;79.00;;;;;;5048421;28;19913;-71
2023/04/22 05:55:19;;;;;;;;;;;11.60;78.90;;;;;;5030010;28;19936;-71
2023/04/22 05:57:44;;;;;;;;;;;11.60;79.00;;;;;;5048093;28;20320;-71
2023/04/22 06:00:10;;;;;;;;;;;11.70;79.00;;;;;;5048314;28;19956;-71
2023/04/22 06:02:36;;;;;;;;;;;11.70;79.00;;;;;;5048470;28;19917;-71
2023/04/22 06:05:01;;;;;;;;;;;11.70;78.90;;;;;;5048364;28;19956;-71
2023/04/22 06:07:27;;;;;;;;;;;11.70;78.90;;;;;;5048136;28;19917;-72
2023/04/22 06:09:52;;;;;;;;;;;11.70;78.90;;;;;;5048029;28;19920;-71
2023/04/22 06:12:18;;;;;;;;;;;11.70;78.90;;;;;;5030419;28;20027;-71
2023/04/22 06:14:44;;;;;;;;;;;11.70;79.00;;;;;;5048061;28;20009;-71
2023/04/22 06:17:09;;;;;;;;;;;11.80;79.10;;;;;;5048014;28;20280;-71
2023/04/22 06:19:35;;;;;;;;;;;11.80;79.10;;;;;;5047999;28;20419;-72
2023/04/22 06:22:01;;;;;;;;;;;11.80;79.10;;;;;;5048061;28;20008;-71
2023/04/22 06:24:26;;;;;;;;;;;11.80;78.90;;;;;;5047926;28;19916;-71
2023/04/22 06:26:52;;;;;;;;;;;11.90;78.90;;;;;;5047932;28;19960;-71
2023/04/22 06:29:17;;;;;;;;;;;11.90;79.00;;;;;;5047784;28;20285;-72
2023/04/22 06:31:43;;;;;;;;;;;11.90;79.20;;;;;;5030069;28;19952;-71
2023/04/22 06:34:08;;;;;;;;;;;11.90;79.20;;;;;;5047704;28;19925;-72
2023/04/22 06:36:36;;;;;;;;;;;11.90;79.30;;;;;;5047792;28;20352;-71
2023/04/22 06:39:05;;;;;;;;;;;11.90;79.30;;;;;;5048015;28;19959;-71
2023/04/22 06:41:31;;;;;;;;;;;11.80;79.30;;;;;;5028963;28;20649;-72
2023/04/22 06:43:57;;;;;;;;;;;11.70;79.30;;;;;;5047600;28;20288;-72
2023/04/22 06:46:23;;;;;;;;;;;11.70;79.40;;;;;;5047369;28;19916;-71
2023/04/22 06:48:48;;;;;;;;;;;11.60;79.40;;;;;;5029794;28;20000;-71
2023/04/22 06:51:14;;;;;;;;;;;11.60;79.40;;;;;;5029695;28;20285;-72
2023/04/22 06:53:39;;;;;;;;;;;11.50;79.20;;;;;;5047594;28;20015;-71
2023/04/22 06:56:05;;;;;;;;;;;11.40;79.30;;;;;;5029585;28;19924;-71
2023/04/22 06:58:31;;;;;;;;;;;11.20;79.20;;;;;;5047406;28;19966;-72
2023/04/22 07:00:56;;;;;;;;;;;11.10;79.40;;;;;;5047547;28;19996;-71
2023/04/22 07:03:22;;;;;;;;;;;11.10;79.50;;;;;;5047532;28;19939;-71
2023/04/22 07:05:47;;;;;;;;;;;11.10;79.50;;;;;;5047502;28;19913;-72
2023/04/22 07:08:13;;;;;;;;;;;11.10;79.60;;;;;;5046982;28;19963;-71
2023/04/22 07:10:39;;;;;;;;;;;11.00;79.50;;;;;;5047128;28;19932;-71
2023/04/22 07:13:04;;;;;;;;;;;11.00;79.50;;;;;;5047238;28;19916;-71
2023/04/22 07:15:30;;;;;;;;;;;11.00;79.50;;;;;;5047088;28;20328;-72
2023/04/22 07:17:55;;;;;;;;;;;10.90;79.40;;;;;;5029284;28;19913;-71
2023/04/22 07:20:21;;;;;;;;;;;10.90;79.50;;;;;;5047049;28;19923;-71
2023/04/22 07:22:46;;;;;;;;;;;10.90;79.40;;;;;;5046888;28;19913;-71
2023/04/22 07:25:12;;;;;;;;;;;10.80;79.40;;;;;;5046878;28;20273;-72
2023/04/22 07:27:38;;;;;;;;;;;10.80;79.50;;;;;;5046889;28;19974;-71
2023/04/22 07:30:05;;;;;;;;;;;10.80;79.60;;;;;;5046887;28;19963;-72
2023/04/22 07:32:31;;;;;;;;;;;10.90;79.60;;;;;;5046851;28;19944;-71
2023/04/22 07:34:56;;;;;;;;;;;10.90;79.60;;;;;;5029389;28;19920;-72
2023/04/22 07:37:22;;;;;;;;;;;10.90;79.50;;;;;;5047475;28;19941;-72
2023/04/22 07:39:47;;;;;;;;;;;11.00;79.70;;;;;;5047072;28;20008;-72
2023/04/22 07:42:13;;;;;;;;;;;11.00;79.60;;;;;;5047045;28;19919;-72
2023/04/22 07:44:39;;;;;;;;;;;11.10;79.60;;;;;;5047436;28;19917;-71
2023/04/22 07:47:06;;;;;;;;;;;11.20;79.40;;;;;;5029342;28;20375;-71
2023/04/22 07:49:32;;;;;;;;;;;11.10;79.30;;;;;;5047170;28;20004;-71
2023/04/22 07:51:57;;;;;;;;;;;11.10;79.40;;;;;;5048024;28;20008;-72
2023/04/22 07:54:23;;;;;;;;;;;11.00;79.40;;;;;;5050779;28;19989;-72
2023/04/22 07:56:48;;;;;;;;;;;11.00;79.40;;;;;;5050337;28;19913;-71
2023/04/22 07:59:14;;;;;;;;;;;11.00;79.50;;;;;;5050181;28;19913;-71
2023/04/22 08:01:40;;;;;;;;;;;11.00;79.70;;;;;;5050347;28;19999;-71
2023/04/22 08:04:06;;;;;;;;;;;11.00;79.60;;;;;;5050220;28;19920;-71
2023/04/22 08:06:32;;;;;;;;;;;11.00;79.50;;;;;;5050132;28;19917;-71
2023/04/22 08:08:58;;;;;;;;;;;11.00;79.50;;;;;;5050099;28;20284;-71
2023/04/22 08:11:23;;;;;;;;;;;11.00;79.50;;;;;;5050216;28;19956;-71
2023/04/22 08:13:49;;;;;;;;;;;11.00;79.40;;;;;;5050149;28;19920;-71
2023/04/22 08:16:15;;;;;;;;;;;11.00;79.50;;;;;;5032181;28;20149;-71
2023/04/22 08:18:40;;;;;;;;;;;11.10;79.60;;;;;;5050115;28;19919;-71
2023/04/22 08:21:06;;;;;;;;;;;11.20;79.60;;;;;;5049988;28;19938;-72
2023/04/22 08:23:31;;;;;;;;;;;11.20;79.40;;;;;;5050035;28;19917;-71
2023/04/22 08:25:57;;;;;;;;;;;11.20;79.40;;;;;;5049903;28;19921;-71
2023/04/22 08:28:23;;;;;;;;;;;11.20;79.50;;;;;;5049559;28;19916;-71
2023/04/22 08:30:48;;;;;;;;;;;11.30;79.30;;;;;;5031849;28;19920;-72
2023/04/22 08:33:14;;;;;;;;;;;11.20;79.30;;;;;;5049403;28;19920;-72
2023/04/22 08:35:40;;;;;;;;;;;11.20;79.40;;;;;;5031784;28;20057;-72
2023/04/22 08:38:05;;;;;;;;;;;11.20;79.40;;;;;;5049579;28;19970;-72
2023/04/22 08:40:33;;;;;;;;;;;11.20;79.50;;;;;;5049313;28;20395;-72
2023/04/22 08:42:58;;;;;;;;;;;11.20;79.50;;;;;;5031340;28;20026;-71
2023/04/22 08:45:24;;;;;;;;;;;11.20;79.60;;;;;;5049271;28;20476;-71
2023/04/22 08:47:50;;;;;;;;;;;11.30;79.60;;;;;;5048913;28;19915;-71
2023/04/22 08:50:16;;;;;;;;;;;11.40;79.50;;;;;;5049600;28;19920;-72
2023/04/22 08:52:42;;;;;;;;;;;11.30;79.30;;;;;;5032347;28;19917;-71
2023/04/22 08:55:08;;;;;;;;;;;11.30;79.50;;;;;;5049923;28;19921;-72
2023/04/22 08:57:34;;;;;;;;;;;11.30;79.60;;;;;;5049540;28;20004;-71
2023/04/22 09:00:01;;;;;;;;;;;11.40;79.60;;;;;;5049825;28;19971;-71
2023/04/22 09:02:27;;;;;;;;;;;11.50;79.60;;;;;;5049963;28;19909;-71
2023/04/22 09:04:53;;;;;;;;;;;11.60;79.60;;;;;;5043292;28;19920;-71
2023/04/22 09:07:23;;;;;;;;;;;11.70;79.60;;;;;;5039160;28;19913;-72
2023/04/22 09:09:49;;;;;;;;;;;11.80;79.60;;;;;;5037318;28;19909;-72
2023/04/22 09:12:17;;;;;;;;;;;11.90;79.60;;;;;;5035424;28;19966;-72
2023/04/22 09:14:43;;;;;;;;;;;12.00;79.60;;;;;;5021755;28;20319;-72
2023/04/22 09:17:08;;;;;;;;;;;12.10;79.50;;;;;;5021958;28;19916;-72
2023/04/22 09:19:34;;;;;;;;;;;12.20;79.30;;;;;;5038411;28;19924;-72
2023/04/22 09:22:00;;;;;;;;;;;12.30;79.30;;;;;;5014089;28;19936;-73
2023/04/22 09:24:26;;;;;;;;;;;12.30;79.40;;;;;;5030551;28;19909;-75
2023/04/22 09:26:53;;;;;;;;;;;12.40;79.50;;;;;;5029504;28;19959;-72
2023/04/22 09:29:19;;;;;;;;;;;12.50;79.50;;;;;;5029679;28;19913;-73
2023/04/22 09:31:49;;;;;;;;;;;12.60;79.50;;;;;;5032004;28;20002;-72
2023/04/22 09:34:14;;;;;;;;;;;12.70;79.40;;;;;;5020110;28;19976;-72
2023/04/22 09:36:42;;;;;;;;;;;12.70;79.50;;;;;;5047900;28;20447;-72
2023/04/22 09:39:07;;;;;;;;;;;12.80;79.50;;;;;;5035709;28;19992;-72
2023/04/22 09:41:40;;;;;;;;;;;12.80;79.50;;;;;;5039915;28;20000;-71
2023/04/22 09:44:26;;;;;;;;;;;12.80;79.30;;;;;;5039459;28;20324;-71
2023/04/22 09:46:52;;;;;;;;;;;12.80;79.40;;;;;;5034772;28;19917;-71
2023/04/22 09:49:19;;;;;;;;;;;12.70;79.30;;;;;;5030856;28;19917;-70
2023/04/22 09:51:45;;;;;;;;;;;12.70;79.30;;;;;;5021158;28;20365;-71
2023/04/22 09:54:10;;;;;;;;;;;12.70;79.20;;;;;;5041002;28;19951;-72
2023/04/22 09:56:49;;;;;;;;;;;12.60;79.20;;;;;;5038969;28;19921;-74
2023/04/22 09:59:19;;;;;;;;;;;12.50;79.20;;;;;;5039617;28;19918;-74
2023/04/22 10:01:45;;;;;;;;;;;12.50;79.30;;;;;;5035122;28;20000;-73
2023/04/22 10:04:13;;;;;;;;;;;12.30;79.40;;;;;;5032780;28;20008;-70
2023/04/22 10:06:39;;;;;;;;;;;12.30;79.60;;;;;;5028718;28;19917;-73
2023/04/22 10:09:04;;;;;;;;;;;12.30;79.60;;;;;;5028521;28;19931;-70
2023/04/22 10:11:31;;;;;;;;;;;12.20;79.40;;;;;;5028614;28;19965;-70
2023/04/22 10:13:57;;;;;;;;;;;12.20;79.30;;;;;;5010627;28;20465;-71
2023/04/22 10:16:23;;;;;;;;;;;12.00;79.00;;;;;;5028510;28;20070;-71
2023/04/22 10:18:50;;;;;;;;;;;11.70;78.90;;;;;;5028642;28;20411;-71
2023/04/22 10:21:17;;;;;;;;;;;11.50;78.80;;;;;;5028689;28;19967;-71
2023/04/22 10:23:46;;;;;;;;;;;11.30;78.80;;;;;;5028404;28;19928;-72
2023/04/22 10:26:12;;;;;;;;;;;11.20;78.80;;;;;;5028470;28;19966;-74
2023/04/22 10:28:42;;;;;;;;;;;11.10;78.90;;;;;;5028795;28;19913;-76
2023/04/22 10:31:19;;;;;;;;;;;11.00;78.80;;;;;;5028721;28;19962;-72
2023/04/22 10:33:45;;;;;;;;;;;10.90;78.70;;;;;;5028641;28;19940;-72
2023/04/22 10:36:13;;;;;;;;;;;10.80;78.70;;;;;;5028816;28;20265;-75
2023/04/22 10:38:40;;;;;;;;;;;10.60;78.70;;;;;;5028992;28;19991;-72
2023/04/22 10:41:06;;;;;;;;;;;10.60;78.90;;;;;;5028371;28;19910;-71
2023/04/22 10:43:48;;;;;;;;;;;10.50;78.90;;;;;;5028411;28;19920;-71
2023/04/22 10:46:31;;;;;;;;;;;10.50;79.00;;;;;;5028569;28;19924;-71
2023/04/22 10:49:07;;;;;;;;;;;10.40;79.10;;;;;;5028610;28;20342;-70
2023/04/22 10:51:39;;;;;;;;;;;10.40;79.00;;;;;;5028434;28;19909;-73
2023/04/22 10:54:05;;;;;;;;;;;10.40;79.00;;;;;;5028302;28;20388;-72
2023/04/22 10:56:31;;;;;;;;;;;10.30;79.00;;;;;;5028752;28;19917;-72
2023/04/22 10:58:56;;;;;;;;;;;10.30;79.10;;;;;;5028279;28;19913;-71
2023/04/22 11:01:22;;;;;;;;;;;10.40;79.00;;;;;;5028375;28;19980;-72
2023/04/22 11:03:49;;;;;;;;;;;10.40;78.90;;;;;;5034003;28;19917;-71
2023/04/22 11:06:16;;;;;;;;;;;10.40;78.80;;;;;;5035949;28;19909;-72
2023/04/22 11:08:46;;;;;;;;;;;10.40;78.70;;;;;;5035685;28;19920;-73
2023/04/22 11:11:13;;;;;;;;;;;10.40;78.80;;;;;;5038272;28;19932;-72
2023/04/22 11:13:40;;;;;;;;;;;10.50;78.80;;;;;;5040871;28;20373;-72
2023/04/22 11:16:07;;;;;;;;;;;10.60;78.70;;;;;;5045233;28;19913;-72
2023/04/22 11:18:33;;;;;;;;;;;10.60;78.80;;;;;;5030193;28;19909;-72
2023/04/22 11:21:04;;;;;;;;;;;10.70;78.80;;;;;;5047276;28;19920;-73
2023/04/22 11:23:30;;;;;;;;;;;10.80;78.80;;;;;;5029806;28;19909;-73
2023/04/22 11:25:56;;;;;;;;;;;10.90;78.90;;;;;;5048166;28;19920;-73
2023/04/22 11:28:22;;;;;;;;;;;11.10;79.00;;;;;;5051201;28;19966;-73
2023/04/22 11:30:48;;;;;;;;;;;11.20;78.80;;;;;;5051725;28;19909;-74
2023/04/22 11:33:14;;;;;;;;;;;11.20;78.60;;;;;;5051326;28;19967;-73
2023/04/22 11:35:41;;;;;;;;;;;11.20;78.60;;;;;;5034895;28;20333;-77
2023/04/22 11:38:07;;;;;;;;;;;11.30;78.60;;;;;;5018312;28;20306;-79
2023/04/22 11:40:40;;;;;;;;;;;11.30;78.60;;;;;;5052621;28;19917;-79
2023/04/22 11:43:06;;;;;;;;;;;11.30;78.50;;;;;;5052018;28;20003;-78
2023/04/22 11:45:33;;;;;;;;;;;11.30;78.50;;;;;;5052212;28;20423;-77
2023/04/22 11:47:59;;;;;;;;;;;11.30;78.40;;;;;;5052535;28;20395;-79
2023/04/22 11:50:26;;;;;;;;;;;11.30;78.40;;;;;;5052226;28;20470;-79
2023/04/22 11:52:56;;;;;;;;;;;11.20;78.40;;;;;;5033702;28;20354;-79
2023/04/22 11:55:29;;;;;;;;;;;11.20;78.50;;;;;;5051980;28;19931;-80
2023/04/22 11:57:56;;;;;;;;;;;11.20;78.60;;;;;;5051878;28;19936;-78
2023/04/22 12:00:22;;;;;;;;;;;11.20;78.60;;;;;;5051754;28;19913;-78
2023/04/22 12:03:01;;;;;;;;;;;11.20;78.60;;;;;;5033943;28;20537;-77
2023/04/22 12:05:37;;;;;;;;;;;11.30;78.70;;;;;;5051996;28;19963;-78
2023/04/22 12:08:06;;;;;;;;;;;11.30;78.70;;;;;;5052426;28;19920;-77
2023/04/22 12:10:31;;;;;;;;;;;11.30;78.50;;;;;;5046024;28;20349;-78
2023/04/22 12:12:58;;;;;;;;;;;11.20;78.50;;;;;;5043442;28;19958;-77
2023/04/22 12:15:24;;;;;;;;;;;11.20;78.50;;;;;;5051691;28;19913;-77
2023/04/22 12:17:50;;;;;;;;;;;11.20;78.50;;;;;;5052189;28;19916;-75
2023/04/22 12:20:16;;;;;;;;;;;11.20;78.50;;;;;;5051830;28;19909;-79
2023/04/22 12:22:41;;;;;;;;;;;11.20;78.70;;;;;;5047560;28;20015;-77
2023/04/22 12:25:07;;;;;;;;;;;11.20;78.70;;;;;;5034688;28;20292;-81
2023/04/22 12:27:33;;;;;;;;;;;11.30;78.80;;;;;;5039734;28;19916;-81
2023/04/22 12:29:59;;;;;;;;;;;11.30;78.80;;;;;;5057949;28;20012;-77
2023/04/22 12:32:25;;;;;;;;;;;11.30;78.80;;;;;;5028824;28;19938;-78
2023/04/22 12:34:51;;;;;;;;;;;11.30;78.90;;;;;;5049234;28;19924;-79
2023/04/22 12:37:17;;;;;;;;;;;11.30;78.90;;;;;;5049672;28;20342;-75
2023/04/22 12:39:43;;;;;;;;;;;11.30;78.90;;;;;;5047341;28;19916;-79
2023/04/22 12:42:09;;;;;;;;;;;11.30;78.80;;;;;;5041628;28;19909;-77
2023/04/22 12:44:35;;;;;;;;;;;11.40;78.80;;;;;;5033441;28;20388;-79
2023/04/22 12:47:00;;;;;;;;;;;11.40;78.90;;;;;;5041623;28;21208;-77
2023/04/22 12:49:26;;;;;;;;;;;11.50;79.00;;;;;;5033985;28;19910;-79
2023/04/22 12:51:52;;;;;;;;;;;11.50;78.90;;;;;;5038184;28;19913;-77
2023/04/22 12:54:18;;;;;;;;;;;11.60;78.90;;;;;;5014358;28;19925;-75
2023/04/22 12:56:44;;;;;;;;;;;11.60;79.10;;;;;;5019047;28;20210;-80
2023/04/22 12:59:09;;;;;;;;;;;11.70;79.10;;;;;;5031845;28;19908;-80
2023/04/22 13:01:35;;;;;;;;;;;11.80;79.20;;;;;;5049777;28;19916;-78
2023/04/22 13:04:01;;;;;;;;;;;11.90;79.10;;;;;;5048856;28;19917;-80
2023/04/22 13:06:27;;;;;;;;;;;11.90;79.10;;;;;;5024450;28;19917;-79
2023/04/22 13:08:53;;;;;;;;;;;12.00;79.20;;;;;;5031490;28;19909;-80
2023/04/22 13:11:19;;;;;;;;;;;12.10;79.20;;;;;;5033431;28;19920;-79
2023/04/22 13:13:45;;;;;;;;;;;12.10;79.10;;;;;;5034114;28;19919;-80
2023/04/22 13:16:10;;;;;;;;;;;12.20;79.00;;;;;;5048806;28;19913;-81
2023/04/22 13:18:36;;;;;;;;;;;12.20;78.90;;;;;;5051066;28;19920;-79
2023/04/22 13:21:01;;;;;;;;;;;12.20;79.00;;;;;;5050868;28;20396;-74
2023/04/22 13:23:27;;;;;;;;;;;12.30;79.10;;;;;;5037959;28;19917;-78
2023/04/22 13:25:53;;;;;;;;;;;12.40;79.10;;;;;;5042226;28;19991;-74
2023/04/22 13:28:19;;;;;;;;;;;12.50;79.10;;;;;;5036752;28;19975;-76
2023/04/22 13:30:44;;;;;;;;;;;12.60;79.20;;;;;;5017766;28;20350;-75
2023/04/22 13:33:10;;;;;;;;;;;12.60;79.00;;;;;;5042579;28;19931;-74
2023/04/22 13:35:35;;;;;;;;;;;12.70;79.20;;;;;;5037923;28;20353;-74
2023/04/22 13:38:01;;;;;;;;;;;12.90;79.40;;;;;;5043685;28;19913;-76
2023/04/22 13:40:27;;;;;;;;;;;12.90;79.40;;;;;;5038384;28;19923;-75
2023/04/22 13:42:53;;;;;;;;;;;13.00;79.30;;;;;;5039529;28;19908;-75
2023/04/22 13:45:19;;;;;;;;;;;13.10;79.40;;;;;;5031656;28;19928;-75
2023/04/22 13:47:44;;;;;;;;;;;13.20;79.50;;;;;;5041662;28;19928;-76
2023/04/22 13:50:10;;;;;;;;;;;13.30;79.50;;;;;;5040727;28;19913;-76
2023/04/22 13:52:35;;;;;;;;;;;13.30;79.40;;;;;;5042554;28;19917;-75
2023/04/22 13:55:02;;;;;;;;;;;13.40;79.40;;;;;;5031419;28;20273;-75
2023/04/22 13:57:28;;;;;;;;;;;13.40;79.30;;;;;;5048622;28;19913;-74
2023/04/22 13:59:53;;;;;;;;;;;13.40;79.40;;;;;;5039089;28;19927;-75
2023/04/22 14:02:19;;;;;;;;;;;13.30;79.40;;;;;;5011938;28;19988;-74
2023/04/22 14:04:44;;;;;;;;;;;13.20;79.60;;;;;;5029436;28;20314;-74
2023/04/22 14:07:11;;;;;;;;;;;13.10;79.90;;;;;;5029081;28;20003;-73
2023/04/22 14:09:36;;;;;;;;;;;13.00;80.10;;;;;;5029404;28;19986;-74